Time;durP1;ratioP1;P1;durP2;ratioP2;P2;SDS_P1;SDS_P2;PMS_P1;PMS_P2;Temp;Humidity;BMP_temperature;BMP_pressure;BME280_temperature;BME280_humidity;BME280_pressure;Samples;Min_cycle;Max_cycle;Signal;HPM_P1;HPM_P2
2023/06/29 00:01:15;;;;;;;18.10;10.70;;;;;;;16.03;76.95;100336.42;112070;1243;21957;-76
2023/06/29 00:04:32;;;;;;;16.20;9.80;;;;;;;16.01;76.95;100330.55;112121;1243;23025;-78
2023/06/29 00:07:12;;;;;;;19.00;10.80;;;;;;;15.99;76.97;100327.71;112203;1243;24282;-77
2023/06/29 00:09:47;;;;;;;14.60;10.80;;;;;;;15.99;76.97;100332.63;111613;1248;23644;-78
2023/06/29 00:12:20;;;;;;;14.50;9.30;;;;;;;16.00;76.96;100334.16;111402;1248;22427;-76
2023/06/29 00:14:49;;;;;;;13.10;9.50;;;;;;;15.99;76.89;100335.95;111781;1244;22235;-78
2023/06/29 00:17:32;;;;;;;21.30;11.20;;;;;;;15.98;76.92;100342.16;111556;1248;22010;-78
2023/06/29 00:20:17;;;;;;;17.80;10.80;;;;;;;15.97;76.97;100343.13;111655;1249;21987;-78
2023/06/29 00:22:49;;;;;;;13.90;9.90;;;;;;;15.96;77.00;100344.75;111132;1255;23717;-78
2023/06/29 00:25:21;;;;;;;16.50;9.20;;;;;;;15.95;77.01;100343.91;111144;1255;21954;-77
2023/06/29 00:28:11;;;;;;;18.20;11.20;;;;;;;15.94;77.06;100347.50;111450;1250;22038;-78
2023/06/29 00:30:59;;;;;;;12.80;10.80;;;;;;;15.94;77.10;100345.95;111618;1250;23274;-75
2023/06/29 00:33:47;;;;;;;18.20;11.70;;;;;;;15.92;77.08;100342.88;111832;1249;22020;-80
2023/06/29 00:36:20;;;;;;;18.00;10.40;;;;;;;15.91;77.06;100343.65;111587;1248;24300;-79
2023/06/29 00:39:00;;;;;;;11.80;10.00;;;;;;;15.90;76.91;100348.59;111823;1247;21967;-81
2023/06/29 00:41:57;;;;;;;16.70;11.20;;;;;;;15.89;77.05;100350.63;112313;1242;23035;-77
2023/06/29 00:45:18;;;;;;;18.70;12.30;;;;;;;15.87;77.17;100351.11;112436;1242;22935;-78
2023/06/29 00:47:53;;;;;;;23.80;11.50;;;;;;;15.86;77.11;100352.55;112420;1242;23632;-78
2023/06/29 00:50:35;;;;;;;14.60;11.50;;;;;;;15.86;77.07;100349.42;112306;1242;23025;-78
2023/06/29 00:53:10;;;;;;;25.30;10.30;;;;;;;15.80;76.92;100340.43;112448;1242;22004;-77
2023/06/29 00:55:44;;;;;;;15.30;10.30;;;;;;;15.83;76.92;100351.81;112624;1238;21976;-77
2023/06/29 00:58:38;;;;;;;12.60;8.90;;;;;;;15.80;77.01;100349.55;113554;1233;23601;-78
2023/06/29 01:01:10;;;;;;;18.40;9.80;;;;;;;15.81;76.91;100354.23;113394;1233;21918;-76
2023/06/29 01:03:41;;;;;;;18.70;9.60;;;;;;;15.78;77.05;100353.20;113214;1233;24280;-78
2023/06/29 01:06:25;;;;;;;14.40;10.40;;;;;;;15.77;77.15;100352.89;113362;1233;21953;-79
2023/06/29 01:09:06;;;;;;;14.80;10.80;;;;;;;15.74;77.00;100350.98;112779;1239;22161;-76
2023/06/29 01:11:41;;;;;;;22.90;11.20;;;;;;;15.72;77.08;100343.17;112511;1239;21951;-79
2023/06/29 01:14:22;;;;;;;19.00;11.00;;;;;;;15.70;76.98;100341.67;112732;1239;22316;-76
2023/06/29 01:16:58;;;;;;;15.90;11.90;;;;;;;15.68;76.91;100339.55;112685;1239;21938;-76
2023/06/29 01:19:50;;;;;;;21.00;12.60;;;;;;;15.64;76.98;100343.96;112291;1244;24526;-76
2023/06/29 01:23:03;;;;;;;21.10;10.50;;;;;;;15.61;76.97;100342.73;112276;1244;21958;-77
2023/06/29 01:25:55;;;;;;;17.20;12.40;;;;;;;15.58;77.03;100343.47;111922;1247;21968;-76
2023/06/29 01:28:49;;;;;;;20.90;11.70;;;;;;;15.56;77.07;100342.86;112097;1243;22061;-78
2023/06/29 01:31:29;;;;;;;13.30;11.10;;;;;;;15.53;77.14;100345.14;112101;1243;24597;-76
2023/06/29 01:34:08;;;;;;;15.50;10.70;;;;;;;15.53;77.14;100344.84;111743;1247;22020;-76
2023/06/29 01:36:48;;;;;;;16.50;11.00;;;;;;;15.51;77.10;100350.52;111542;1242;21975;-75
2023/06/29 01:39:37;;;;;;;14.50;11.30;;;;;;;15.44;77.15;100336.41;112396;1242;22453;-76
2023/06/29 01:42:17;;;;;;;19.00;12.70;;;;;;;15.48;77.16;100344.03;112080;1245;21957;-78
2023/06/29 01:44:53;;;;;;;19.30;12.00;;;;;;;15.49;77.05;100350.50;112307;1240;21961;-75
2023/06/29 01:47:30;;;;;;;20.90;13.70;;;;;;;15.43;77.09;100344.52;111767;1247;23622;-76
2023/06/29 01:50:11;;;;;;;17.00;13.60;;;;;;;15.40;77.13;100348.71;111928;1247;21946;-76
2023/06/29 01:52:54;;;;;;;19.50;13.20;;;;;;;15.39;77.28;100349.79;112216;1243;21958;-77
2023/06/29 01:55:35;;;;;;;18.10;12.80;;;;;;;15.38;77.31;100349.53;112232;1243;23681;-78
2023/06/29 01:58:22;;;;;;;19.80;12.60;;;;;;;15.37;77.39;100348.69;111774;1248;21968;-76
2023/06/29 02:00:58;;;;;;;24.00;12.40;;;;;;;15.36;77.38;100349.45;112191;1243;21963;-76
2023/06/29 02:03:38;;;;;;;20.60;12.20;;;;;;;15.35;77.39;100348.30;112311;1243;23603;-78
2023/06/29 02:06:14;;;;;;;20.00;12.50;;;;;;;15.33;77.43;100342.80;112868;1238;22045;-78
2023/06/29 02:08:47;;;;;;;14.60;11.00;;;;;;;15.32;77.45;100344.59;112804;1238;23723;-76
2023/06/29 02:11:34;;;;;;;13.30;11.90;;;;;;;15.32;77.45;100346.38;112276;1244;21939;-80
2023/06/29 02:14:16;;;;;;;20.00;11.10;;;;;;;15.32;77.49;100347.41;112406;1244;23711;-77
2023/06/29 02:16:58;;;;;;;17.00;11.50;;;;;;;15.31;77.46;100346.11;112722;1239;22090;-77
2023/06/29 02:19:47;;;;;;;14.50;12.40;;;;;;;15.29;77.62;100350.75;112758;1239;21986;-77
2023/06/29 02:22:32;;;;;;;17.30;13.00;;;;;;;15.29;77.56;100353.59;112538;1239;23695;-77
2023/06/29 02:25:04;;;;;;;17.90;13.00;;;;;;;15.28;77.63;100354.14;111935;1245;23712;-76
2023/06/29 02:27:38;;;;;;;18.90;12.60;;;;;;;15.29;77.56;100353.39;112111;1245;23717;-75
2023/06/29 02:30:13;;;;;;;23.00;12.90;;;;;;;15.28;77.52;100348.52;112643;1239;22072;-78
2023/06/29 02:32:50;;;;;;;21.40;13.20;;;;;;;15.28;77.48;100354.35;112554;1239;23092;-77
2023/06/29 02:35:25;;;;;;;13.30;12.00;;;;;;;15.27;77.57;100356.29;111951;1244;21931;-77
2023/06/29 02:37:58;;;;;;;14.00;12.00;;;;;;;15.27;77.58;100363.67;112293;1244;21965;-78
2023/06/29 02:40:32;;;;;;;16.40;12.50;;;;;;;15.27;77.58;100367.19;112333;1244;23024;-79
2023/06/29 02:43:09;;;;;;;15.80;13.60;;;;;;;15.26;77.59;100364.57;112371;1241;23595;-77
2023/06/29 02:45:42;;;;;;;17.90;13.50;;;;;;;15.26;77.57;100367.20;111721;1246;21988;-77
2023/06/29 02:48:27;;;;;;;22.90;14.20;;;;;;;15.26;77.55;100375.13;111766;1246;21968;-75
2023/06/29 02:51:20;;;;;;;18.90;13.70;;;;;;;15.25;77.63;100380.41;111809;1246;22126;-77
2023/06/29 02:53:58;;;;;;;18.10;11.60;;;;;;;15.23;77.60;100381.39;111879;1246;21994;-79
2023/06/29 02:56:39;;;;;;;15.80;12.20;;;;;;;15.25;77.46;100383.05;111438;1250;21957;-79
2023/06/29 02:59:24;;;;;;;;;;;;;;;;;;;;;
2023/06/29 03:01:59;;;;;;;23.10;10.90;;;;;;;15.24;77.57;100379.81;111510;1249;21981;-78
2023/06/29 03:04:33;;;;;;;17.10;12.30;;;;;;;15.24;77.53;100374.68;111742;1245;22712;-77
2023/06/29 03:07:08;;;;;;;20.50;12.40;;;;;;;15.24;77.45;100375.25;112218;1245;23695;-78
2023/06/29 03:09:41;;;;;;;19.00;13.80;;;;;;;15.24;77.43;100375.08;111638;1251;21971;-78
2023/06/29 03:12:12;;;;;;;25.30;13.80;;;;;;;15.26;77.48;100374.94;111805;1245;21950;-78
2023/06/29 03:14:55;;;;;;;17.20;13.00;;;;;;;15.28;77.65;100382.21;111142;1255;23622;-79
2023/06/29 03:17:33;;;;;;;15.30;12.20;;;;;;;15.32;77.65;100383.58;111092;1252;22111;-79
2023/06/29 03:20:29;;;;;;;18.90;11.90;;;;;;;15.32;77.73;100387.08;111310;1254;23775;-79
2023/06/29 03:23:18;;;;;;;15.20;11.80;;;;;;;15.33;77.85;100385.95;111448;1251;23743;-76
2023/06/29 03:25:50;;;;;;;18.50;12.90;;;;;;;15.30;78.00;100377.83;111444;1250;23023;-80
2023/06/29 03:28:41;;;;;;;22.20;12.70;;;;;;;15.39;77.90;100384.00;111535;1250;22733;-78
2023/06/29 03:31:21;;;;;;;58.70;53.40;;;;;;;15.41;77.85;100383.90;111700;1250;22032;-79
2023/06/29 03:33:57;;;;;;;48.80;44.50;;;;;;;15.44;77.83;100381.07;112340;1239;21946;-78
2023/06/29 03:36:40;;;;;;;37.20;33.50;;;;;;;15.49;77.90;100376.57;111878;1245;23018;-79
2023/06/29 03:39:21;;;;;;;16.80;14.60;;;;;;;15.53;77.78;100373.06;112808;1241;21947;-76
2023/06/29 03:42:06;;;;;;;15.60;11.00;;;;;;;15.57;77.67;100374.36;112829;1240;22699;-83
2023/06/29 03:45:35;;;;;;;16.90;12.20;;;;;;;15.60;77.87;100379.11;112404;1246;22961;-80
2023/06/29 03:48:27;;;;;;;16.50;10.50;;;;;;;15.64;77.68;100379.42;112049;1249;21984;-80
2023/06/29 03:51:56;;;;;;;14.70;10.90;;;;;;;15.67;77.75;100382.23;111424;1254;22005;-81
2023/06/29 03:54:48;;;;;;;16.70;10.30;;;;;;;15.72;77.70;100385.62;111669;1248;22042;-78
2023/06/29 03:58:16;;;;;;;;;;;;;;;15.78;77.80;100390.03;112169;1249;23012;-80
2023/06/29 04:01:32;;;;;;;12.30;10.10;;;;;;;15.76;78.02;100391.57;111873;1250;21970;-80
2023/06/29 04:04:33;;;;;;;14.90;11.40;;;;;;;15.83;77.97;100391.67;111329;1255;21971;-82
2023/06/29 04:07:36;;;;;;;;;;;;;;;;;;;;;
2023/06/29 04:10:44;;;;;;;16.30;10.40;;;;;;;16.05;77.88;100390.38;112180;1247;22018;-79
2023/06/29 04:13:48;;;;;;;14.10;10.10;;;;;;;16.14;77.51;100391.56;112076;1247;21972;-80
2023/06/29 04:16:35;;;;;;;12.10;9.40;;;;;;;16.25;77.57;100396.73;112350;1242;23606;-79
2023/06/29 04:19:51;;;;;;;18.50;10.60;;;;;;;16.36;77.43;100393.92;112957;1239;22696;-80
2023/06/29 04:23:21;;;;;;;;;;;;;;;;;;;;;
2023/06/29 04:26:38;;;;;;;15.10;9.80;;;;;;;16.61;77.20;100398.38;112245;1246;22003;-80
2023/06/29 04:30:21;;;;;;;12.10;10.70;;;;;;;16.77;77.03;100401.80;111678;1251;23707;-81
2023/06/29 04:33:35;;;;;;;12.70;7.80;;;;;;;16.89;76.64;100399.79;111715;1251;24341;-81
2023/06/29 04:36:33;;;;;;;11.50;7.80;;;;;;;17.04;76.43;100400.78;111905;1250;22021;-79
2023/06/29 04:40:07;;;;;;;9.90;7.80;;;;;;;17.19;76.13;100397.23;111595;1251;22019;-83
2023/06/29 04:43:16;;;;;;;14.00;9.40;;;;;;;17.36;75.93;100400.50;112251;1239;21938;-81
2023/06/29 04:46:42;;;;;;;15.00;8.90;;;;;;;17.59;75.76;100401.81;112729;1242;22410;-79
2023/06/29 04:50:47;;;;;;;16.40;7.50;;;;;;;17.91;75.60;100406.75;112375;1242;22879;-80
2023/06/29 04:53:41;;;;;;;11.30;8.40;;;;;;;18.25;75.14;100406.37;111722;1249;21958;-80
2023/06/29 04:56:15;;;;;;;16.10;8.70;;;;;;;18.54;74.63;100411.89;111678;1247;22039;-79
2023/06/29 04:58:52;;;;;;;10.10;7.40;;;;;;;18.93;74.71;100410.63;111874;1247;21989;-79
2023/06/29 05:01:37;;;;;;;11.20;7.70;;;;;;;19.29;73.46;100408.34;111949;1247;23791;-79
2023/06/29 05:04:43;;;;;;;12.40;7.40;;;;;;;19.70;72.99;100404.26;111182;1245;21963;-77
2023/06/29 05:07:31;;;;;;;15.60;8.20;;;;;;;20.08;71.34;100403.38;111079;1255;22786;-78
2023/06/29 05:10:18;;;;;;;12.30;6.90;;;;;;;20.39;70.03;100400.75;111229;1254;22433;-77
2023/06/29 05:13:20;;;;;;;;;;;;;;;;;;;;;
2023/06/29 05:16:26;;;;;;;8.90;6.80;;;;;;;21.10;67.65;100406.87;111378;1254;23705;-76
2023/06/29 05:19:17;;;;;;;13.90;6.60;;;;;;;21.41;66.48;100408.54;111379;1251;21963;-78
2023/06/29 05:23:12;;;;;;;9.50;6.30;;;;;;;21.68;65.13;100408.84;111671;1248;21935;-79
2023/06/29 05:26:18;;;;;;;12.10;6.40;;;;;;;21.96;64.24;100413.78;112867;1238;21947;-78
2023/06/29 05:29:42;;;;;;;9.30;5.90;;;;;;;22.20;62.82;100419.19;113088;1238;21941;-78
2023/06/29 05:33:08;;;;;;;8.20;5.70;;;;;;;22.26;61.22;100422.27;113196;1238;21965;-78
2023/06/29 05:36:36;;;;;;;10.00;5.50;;;;;;;22.35;61.18;100415.46;113062;1238;21941;-77
2023/06/29 05:39:54;;;;;;;11.20;5.30;;;;;;;22.68;60.85;100412.89;113072;1237;23662;-78
2023/06/29 05:43:15;;;;;;;15.80;6.60;;;;;;;22.80;59.36;100415.27;112497;1244;23670;-78
2023/06/29 05:46:12;;;;;;;;;;;;;;;;;;;;;
2023/06/29 05:49:08;;;;;;;11.20;5.70;;;;;;;23.11;58.44;100419.58;112844;1239;22949;-78
2023/06/29 05:51:51;;;;;;;8.80;5.50;;;;;;;23.32;58.07;100418.80;112031;1245;23699;-77
2023/06/29 05:54:44;;;;;;;11.60;5.20;;;;;;;23.58;57.23;100419.64;112089;1244;23015;-78
2023/06/29 05:57:48;;;;;;;;;;;;;;;;;;;;;
2023/06/29 06:00:39;;;;;;;7.60;5.00;;;;;;;23.95;55.80;100414.48;111974;1244;21930;-78
2023/06/29 06:03:44;;;;;;;8.70;5.30;;;;;;;24.06;55.07;100409.77;111978;1248;21947;-78
2023/06/29 06:06:25;;;;;;;10.60;6.20;;;;;;;24.26;54.63;100408.00;112104;1248;21992;-75
2023/06/29 06:09:06;;;;;;;11.10;4.80;;;;;;;24.43;54.04;100403.23;111413;1249;22651;-79
2023/06/29 06:11:47;;;;;;;11.40;5.30;;;;;;;24.63;53.70;100406.86;112057;1249;23063;-79
2023/06/29 06:14:34;;;;;;;8.90;4.20;;;;;;;24.80;52.39;100410.35;112021;1249;21977;-82
2023/06/29 06:17:10;;;;;;;9.40;4.90;;;;;;;24.85;51.80;100413.81;111788;1249;23083;-81
2023/06/29 06:19:58;;;;;;;6.90;4.40;;;;;;;24.94;51.52;100418.29;112011;1245;21965;-81
2023/06/29 06:22:52;;;;;;;7.40;4.10;;;;;;;24.97;51.06;100412.73;112345;1245;21954;-79
2023/06/29 06:26:07;;;;;;;7.30;4.70;;;;;;;25.07;50.75;100418.77;112442;1245;22206;-82
2023/06/29 06:29:10;;;;;;;7.00;4.20;;;;;;;25.19;50.36;100422.61;112201;1247;21952;-81
2023/06/29 06:31:49;;;;;;;6.70;3.30;;;;;;;25.35;50.19;100424.10;112443;1247;21971;-81
2023/06/29 06:34:57;;;;;;;8.40;5.20;;;;;;;25.58;49.83;100424.10;112173;1247;21989;-82
2023/06/29 06:37:28;;;;;;;5.20;4.50;;;;;;;25.84;49.57;100425.60;111631;1250;22047;-83
2023/06/29 06:40:15;;;;;;;;;;;;;;;26.11;48.91;100425.41;112009;1250;22421;-84
2023/06/29 06:43:00;;;;;;;8.80;3.80;;;;;;;26.25;48.86;100424.10;111844;1250;22280;-82
2023/06/29 06:45:58;;;;;;;12.50;4.60;;;;;;;26.45;48.05;100428.69;112100;1250;22824;-82
2023/06/29 06:48:37;;;;;;;4.30;3.20;;;;;;;26.51;47.61;100427.88;111839;1250;21967;-82
2023/06/29 06:51:25;;;;;;;7.80;4.60;;;;;;;26.62;47.53;100424.84;111822;1248;22202;-83
2023/06/29 06:54:05;;;;;;;;;;;;;;;26.75;47.09;100423.29;112070;1249;22865;-83
2023/06/29 06:56:54;;;;;;;7.60;3.60;;;;;;;26.86;46.77;100423.30;112437;1246;21959;-82
2023/06/29 06:59:51;;;;;;;9.90;3.60;;;;;;;26.91;46.05;100423.38;111929;1248;21935;-83
2023/06/29 07:02:38;;;;;;;5.90;3.90;;;;;;;26.99;45.57;100427.92;112033;1247;21958;-80
2023/06/29 07:05:28;;;;;;;11.90;3.90;;;;;;;26.99;44.72;100426.22;112078;1248;23584;-83
2023/06/29 07:08:16;;;;;;;5.60;3.60;;;;;;;27.08;45.05;100428.02;111691;1252;22711;-83
2023/06/29 07:10:53;;;;;;;11.50;4.60;;;;;;;27.19;45.14;100426.96;111202;1255;21955;-82
2023/06/29 07:13:33;;;;;;;8.80;4.40;;;;;;;27.31;44.39;100422.52;111168;1255;21997;-82
2023/06/29 07:16:25;;;;;;;10.30;4.30;;;;;;;27.30;44.11;100423.57;111253;1256;23726;-82
2023/06/29 07:19:07;;;;;;;11.10;4.20;;;;;;;27.25;43.94;100423.19;111750;1250;23716;-80
2023/06/29 07:21:45;;;;;;;11.40;4.30;;;;;;;27.37;44.62;100420.29;111747;1250;24305;-79
2023/06/29 07:24:57;;;;;;;10.20;4.50;;;;;;;27.53;44.26;100416.46;111970;1247;23039;-80
2023/06/29 07:27:35;;;;;;;9.30;3.80;;;;;;;27.48;42.84;100421.11;112896;1241;21956;-79
2023/06/29 07:30:06;;;;;;;7.40;3.70;;;;;;;27.35;43.31;100419.77;112660;1242;21945;-80
2023/06/29 07:32:54;;;;;;;7.90;4.30;;;;;;;27.25;43.31;100417.23;112757;1239;21974;-81
2023/06/29 07:35:32;;;;;;;5.40;3.30;;;;;;;27.21;42.95;100418.37;113039;1232;21953;-81
2023/06/29 07:38:14;;;;;;;9.10;4.60;;;;;;;27.18;43.19;100420.46;113787;1228;21981;-81
2023/06/29 07:40:59;;;;;;;11.50;4.40;;;;;;;27.21;43.72;100424.33;113792;1233;23014;-82
2023/06/29 07:44:05;;;;;;;7.00;3.80;;;;;;;27.20;43.37;100418.50;113281;1239;22015;-83
2023/06/29 07:46:47;;;;;;;7.70;4.00;;;;;;;27.24;43.45;100409.72;112663;1238;21941;-77
2023/06/29 07:49:23;;;;;;;7.50;3.90;;;;;;;27.36;43.63;100410.14;112800;1238;23005;-78
2023/06/29 07:52:07;;;;;;;6.10;3.70;;;;;;;27.39;42.97;100413.64;112255;1243;23689;-77
2023/06/29 07:54:43;;;;;;;12.80;4.50;;;;;;;27.44;43.27;100409.35;112365;1235;22999;-76
2023/06/29 07:57:27;;;;;;;;;;;;;;;;;;;;;
2023/06/29 08:00:24;;;;;;;10.20;3.80;;;;;;;27.83;42.87;100399.20;112172;1245;22015;-77
2023/06/29 08:03:04;;;;;;;7.10;3.20;;;;;;;27.93;42.05;100399.73;112998;1238;24278;-76
2023/06/29 08:05:57;;;;;;;8.30;3.10;;;;;;;27.85;41.84;100400.93;113012;1238;22135;-81
2023/06/29 08:08:30;;;;;;;6.10;3.60;;;;;;;27.82;41.79;100407.83;112925;1238;21946;-78
2023/06/29 08:11:18;;;;;;;6.30;3.70;;;;;;;27.83;41.66;100407.10;113386;1233;21961;-79
2023/06/29 08:14:32;;;;;;;9.10;3.80;;;;;;;27.75;42.01;100407.01;113753;1233;21956;-78
2023/06/29 08:17:14;;;;;;;8.20;3.90;;;;;;;27.71;41.34;100404.98;113461;1233;23783;-78
2023/06/29 08:20:13;;;;;;;6.40;3.40;;;;;;;27.52;41.66;100405.96;113479;1224;22376;-77
2023/06/29 08:22:43;;;;;;;4.00;3.10;;;;;;;27.40;41.53;100405.45;113427;1233;21957;-77
2023/06/29 08:25:18;;;;;;;4.80;3.00;;;;;;;27.08;41.71;100406.36;113165;1233;21932;-76
2023/06/29 08:28:17;;;;;;;29.50;6.30;;;;;;;26.89;42.92;100402.32;113535;1233;21936;-77
2023/06/29 08:31:09;;;;;;;8.70;3.90;;;;;;;26.83;43.09;100406.77;113361;1233;22938;-77
2023/06/29 08:34:05;;;;;;;7.90;3.30;;;;;;;26.67;43.14;100405.23;112832;1239;21960;-78
2023/06/29 08:36:52;;;;;;;;;;;;;;;;;;;;;
2023/06/29 08:39:36;;;;;;;15.10;3.80;;;;;;;26.99;44.11;100401.44;112815;1239;22836;-77
2023/06/29 08:42:17;;;;;;;7.10;3.50;;;;;;;27.27;43.24;100399.98;112800;1239;22590;-78
2023/06/29 08:45:06;;;;;;;7.90;3.40;;;;;;;27.27;42.24;100405.27;112968;1238;22670;-79
2023/06/29 08:48:03;;;;;;;5.50;3.40;;;;;;;27.21;42.42;100407.17;112599;1238;23552;-78
2023/06/29 08:51:20;;;;;;;5.90;3.00;;;;;;;27.31;42.43;100407.92;112061;1244;21945;-80
2023/06/29 08:54:23;;;;;;;4.20;3.00;;;;;;;27.40;42.14;100406.90;112794;1239;22020;-79
2023/06/29 08:57:06;;;;;;;9.30;3.10;;;;;;;27.46;41.75;100403.19;112928;1239;21961;-78
2023/06/29 08:59:47;;;;;;;8.20;4.40;;;;;;;27.48;41.57;100402.11;112765;1239;21958;-79
2023/06/29 09:02:43;;;;;;;7.40;3.40;;;;;;;27.48;41.33;100401.00;112341;1242;21945;-79
2023/06/29 09:05:25;;;;;;;8.10;3.30;;;;;;;27.30;40.90;100403.66;112300;1242;22827;-78
2023/06/29 09:08:23;;;;;;;8.20;2.70;;;;;;;27.25;41.53;100396.52;112400;1236;21941;-79
2023/06/29 09:11:23;;;;;;;7.70;3.00;;;;;;;27.38;41.58;100390.89;113248;1236;21947;-79
2023/06/29 09:14:35;;;;;;;4.60;2.60;;;;;;;27.52;41.45;100388.65;112957;1236;23572;-79
2023/06/29 09:18:38;;;;;;;;;;;;;;;;;;;;;
2023/06/29 09:21:31;;;;;;;4.60;2.90;;;;;;;27.15;40.49;100392.27;112825;1239;22008;-78
2023/06/29 09:24:38;;;;;;;8.70;3.50;;;;;;;27.02;41.38;100390.17;112381;1243;23679;-77
2023/06/29 09:27:51;;;;;;;5.30;2.80;;;;;;;27.04;41.26;100382.63;112409;1242;22108;-80
2023/06/29 09:31:14;;;;;;;7.00;2.60;;;;;;;27.01;41.19;100385.17;112596;1242;21966;-78
2023/06/29 09:34:20;;;;;;;4.70;2.60;;;;;;;26.94;41.42;100386.09;111751;1244;22027;-80
2023/06/29 09:37:34;;;;;;;5.20;2.60;;;;;;;26.92;41.46;100384.90;111854;1248;21967;-81
2023/06/29 09:40:55;;;;;;;5.50;3.30;;;;;;;26.64;41.15;100380.70;111680;1251;21977;-77
2023/06/29 09:44:35;;;;;;;7.50;2.90;;;;;;;26.42;41.64;100376.72;111397;1245;21973;-78
2023/06/29 09:47:40;;;;;;;4.60;2.70;;;;;;;26.50;42.14;100375.05;111615;1251;22944;-78
2023/06/29 09:50:42;;;;;;;9.90;5.30;;;;;;;26.62;41.99;100378.44;111616;1251;23703;-79
2023/06/29 09:53:54;;;;;;;9.10;3.30;;;;;;;26.58;41.51;100377.17;112260;1245;22744;-77
2023/06/29 09:56:56;;;;;;;4.90;2.80;;;;;;;26.57;41.41;100371.82;112768;1239;22084;-78
2023/06/29 09:59:43;;;;;;;7.10;2.50;;;;;;;26.45;41.43;100362.09;112966;1240;23026;-77
2023/06/29 10:02:30;;;;;;;7.80;2.70;;;;;;;26.47;41.82;100368.69;112572;1239;21979;-78
2023/06/29 10:05:21;;;;;;;6.70;2.70;;;;;;;26.42;41.50;100371.23;112568;1239;22920;-75
2023/06/29 10:08:21;;;;;;;11.10;6.80;;;;;;;26.32;42.33;100367.81;113111;1238;22214;-78
2023/06/29 10:11:14;;;;;;;;;;;;;;;;;;;;;
2023/06/29 10:14:22;;;;;;;4.60;2.30;;;;;;;26.36;42.22;100370.55;113192;1238;23018;-78
2023/06/29 10:16:57;;;;;;;5.10;2.90;;;;;;;26.22;41.75;100370.58;112231;1245;22452;-78
2023/06/29 10:19:48;;;;;;;6.90;2.40;;;;;;;26.16;41.88;100368.19;112887;1241;21960;-78
2023/06/29 10:22:24;;;;;;;6.80;2.80;;;;;;;26.22;42.49;100364.21;112642;1241;21944;-79
2023/06/29 10:25:17;;;;;;;5.30;2.60;;;;;;;26.31;42.13;100363.56;112538;1240;23018;-79
2023/06/29 10:27:47;;;;;;;8.90;2.50;;;;;;;26.34;41.92;100360.48;112621;1241;21946;-79
2023/06/29 10:30:45;;;;;;;3.80;2.60;;;;;;;26.39;41.76;100355.63;112252;1246;21968;-79
2023/06/29 10:33:22;;;;;;;8.50;2.60;;;;;;;26.42;41.58;100359.62;111350;1251;22510;-80
2023/06/29 10:36:02;;;;;;;5.50;2.60;;;;;;;26.45;41.26;100355.73;112220;1245;23597;-78
2023/06/29 10:38:40;;;;;;;3.50;2.00;;;;;;;26.45;41.10;100359.05;112156;1245;21958;-79
2023/06/29 10:41:35;;;;;;;3.60;1.70;;;;;;;26.44;41.07;100358.13;112362;1245;22039;-79
2023/06/29 10:44:34;;;;;;;4.30;2.20;;;;;;;26.49;40.95;100356.70;112766;1245;21954;-78
2023/06/29 10:47:41;;;;;;;4.80;2.50;;;;;;;26.54;40.99;100353.11;112622;1245;21981;-80
2023/06/29 10:50:59;;;;;;;7.80;1.90;;;;;;;26.60;40.62;100347.00;113198;1239;23686;-82
2023/06/29 10:53:49;;;;;;;6.30;2.50;;;;;;;26.60;40.52;100344.19;112734;1245;22218;-79
2023/06/29 10:56:32;;;;;;;5.20;2.30;;;;;;;26.63;40.36;100346.53;111779;1250;21996;-80
2023/06/29 10:59:14;;;;;;;;;;;;;;;26.67;40.37;100339.86;111932;1250;21982;-81
2023/06/29 11:02:31;;;;;;;6.80;2.70;;;;;;;26.67;40.46;100336.96;112103;1250;22486;-79
2023/06/29 11:05:28;;;;;;;7.30;2.20;;;;;;;26.75;40.03;100335.48;111587;1256;22159;-82
2023/06/29 11:08:11;;;;;;;4.80;2.30;;;;;;;26.77;40.11;100332.77;111624;1255;22309;-80
2023/06/29 11:11:14;;;;;;;5.20;2.10;;;;;;;26.72;39.73;100331.98;111519;1253;21965;-79
2023/06/29 11:14:27;;;;;;;7.00;2.40;;;;;;;26.65;39.76;100329.86;111237;1257;21969;-82
2023/06/29 11:17:51;;;;;;;6.80;2.10;;;;;;;26.69;40.26;100328.90;107191;1257;5378843;-84
2023/06/29 11:20:57;;;;;;;;;;;;;;;;;;;;;
2023/06/29 11:23:36;;;;;;;5.30;2.20;;;;;;;26.57;40.18;100332.15;111473;1254;22655;-79
2023/06/29 11:26:47;;;;;;;3.30;2.00;;;;;;;26.58;40.01;100328.63;111367;1254;24539;-81
2023/06/29 11:29:34;;;;;;;5.60;2.20;;;;;;;26.60;39.99;100321.70;111462;1254;23854;-81
2023/06/29 11:32:25;;;;;;;6.30;2.40;;;;;;;26.62;39.61;100317.71;111743;1249;21997;-83
2023/06/29 11:35:20;;;;;;;4.10;2.20;;;;;;;26.57;39.53;100314.73;112132;1249;23046;-82
2023/06/29 11:38:43;;;;;;;5.60;2.30;;;;;;;26.48;39.23;100319.37;111692;1251;21981;-81
2023/06/29 11:42:01;;;;;;;3.20;1.70;;;;;;;26.46;39.26;100312.64;111542;1252;21970;-81
2023/06/29 11:48:29;;;;;;;3.60;1.90;;;;;;;26.40;39.16;100312.88;111713;1253;21990;-80
2023/06/29 11:51:26;;;;;;;6.60;1.60;;;;;;;26.30;39.04;100301.51;111364;1253;22005;-81
2023/06/29 11:54:14;;;;;;;4.80;2.30;;;;;;;26.36;39.25;100314.74;111547;1253;21976;-79
2023/06/29 11:57:07;;;;;;;5.70;3.70;;;;;;;26.38;39.01;100315.39;111237;1253;21985;-79
2023/06/29 11:59:42;;;;;;;2.90;1.70;;;;;;;26.30;38.88;100314.98;111683;1253;22024;-80
2023/06/29 12:02:25;;;;;;;4.10;1.90;;;;;;;26.21;38.87;100308.13;111446;1253;22037;-79
2023/06/29 12:05:14;;;;;;;5.70;2.10;;;;;;;26.03;39.18;100299.09;111489;1253;23704;-78
2023/06/29 12:08:22;;;;;;;5.50;1.90;;;;;;;26.02;40.04;100302.02;112131;1239;21982;-81
2023/06/29 12:10:53;;;;;;;3.90;2.00;;;;;;;26.12;40.39;100301.57;113076;1239;22512;-78
2023/06/29 12:13:28;;;;;;;5.80;2.00;;;;;;;26.14;39.51;100301.71;113038;1239;21977;-78
2023/06/29 12:16:05;;;;;;;6.20;1.60;;;;;;;26.07;39.21;100293.87;113199;1239;23105;-78
2023/06/29 12:18:42;;;;;;;5.20;2.20;;;;;;;26.05;39.36;100290.48;113402;1233;23595;-79
2023/06/29 12:21:20;;;;;;;4.10;2.80;;;;;;;26.10;39.68;100283.61;113645;1233;22871;-81
2023/06/29 12:24:09;;;;;;;5.10;1.70;;;;;;;26.26;39.76;100287.36;113716;1233;21940;-80
2023/06/29 12:26:59;;;;;;;4.10;1.60;;;;;;;26.36;39.39;100286.23;112686;1241;21945;-80
2023/06/29 12:30:14;;;;;;;;;;;;;;;;;;;;;
2023/06/29 12:33:48;;;;;;;5.80;2.20;;;;;;;26.25;39.24;100277.31;112364;1245;23037;-79
2023/06/29 12:37:03;;;;;;;5.80;2.00;;;;;;;26.12;39.31;100274.29;112480;1244;23044;-80
2023/06/29 12:40:15;;;;;;;6.70;2.20;;;;;;;26.03;39.21;100275.18;112364;1244;22339;-80
2023/06/29 12:43:07;;;;;;;;;;;;;;;25.89;39.12;100271.79;112517;1244;21941;-79
2023/06/29 12:46:25;;;;;;;;;;;;;;;;;;;;;
2023/06/29 12:49:45;;;;;;;;;;;;;;;;;;;;;
2023/06/29 12:52:40;;;;;;;5.20;2.80;;;;;;;25.89;40.42;100258.48;113872;1233;21953;-79
2023/06/29 12:55:24;;;;;;;6.40;2.20;;;;;;;26.08;40.34;100257.79;113653;1232;23003;-78
2023/06/29 12:58:11;;;;;;;7.20;2.50;;;;;;;26.19;40.04;100256.90;113520;1233;23543;-79
2023/06/29 13:01:24;;;;;;;;;;;;;;;;;;;;;
2023/06/29 13:04:29;;;;;;;4.40;2.00;;;;;;;26.17;38.97;100256.05;113259;1238;22992;-79
2023/06/29 13:07:38;;;;;;;4.50;2.00;;;;;;;26.08;39.23;100253.95;112779;1238;22095;-81
2023/06/29 13:10:30;;;;;;;6.00;1.80;;;;;;;26.14;39.41;100248.09;112258;1243;21984;-79
2023/06/29 13:13:35;;;;;;;3.70;1.90;;;;;;;26.21;39.30;100247.84;112438;1243;23605;-78
2023/06/29 13:16:42;;;;;;;;;;;;;;;;;;;;;
2023/06/29 13:20:09;;;;;;;7.70;2.20;;;;;;;26.31;39.15;100236.41;112620;1241;21944;-80
2023/06/29 13:23:00;;;;;;;3.30;2.00;;;;;;;26.33;38.75;100241.39;113037;1241;22376;-79
2023/06/29 13:25:39;;;;;;;;;;;;;;;26.39;38.56;100239.83;112425;1246;21954;-79
2023/06/29 13:29:11;;;;;;;3.30;2.60;;;;;;;26.33;38.26;100240.11;112725;1238;21951;-79
2023/06/29 13:32:11;;;;;;;2.60;1.80;;;;;;;26.30;38.41;100239.83;112272;1246;21960;-78
2023/06/29 13:35:10;;;;;;;6.70;2.40;;;;;;;26.27;38.48;100224.76;112006;1246;22368;-79
2023/06/29 13:38:01;;;;;;;6.00;2.00;;;;;;;26.36;38.62;100235.52;112111;1247;21981;-79